KLUF

Luke AFB Airport

Glendale, Arizona, USA
METAR KLUF 200658Z AUTO 00000KT 10SM CLR 06/M07 A2990 RMK AO2 SLP123 T00631066 401860063 VISNO RWY21 $
Observed Flight Rules
Feb-20 @ 06:58 UTC (15 minutes ago) Visual Flight Rules
Wind Visibility Clouds
Calm 10 miles
  • Clear skies
Temperatures Readings
Current 6°C / 43°F
Dewpoint -7°C / 19°F
Humidity 39%
Altimeter 29.9" Hg
Pressure 1012.3 hPa
Elevation 332
METAR KLUF 200658Z AUTO 00000KT 10SM CLR 06/M07 A2990 RMK AO2 SLP123 T00631066 401860063 VISNO RWY21 $
Observed Flight Rules
Feb-20 @ 06:58 UTC
(15 minutes ago)
VFR
Wind Visibility
Calm 10 miles
Clouds
  • Clear skies
Temperature Dewpoint
6°C / 43°F -7°C / 19°F
Humidity Altimeter Pressure
39% 29.9" Hg 1012.3 hPa